sensor_id;sensor_type;location;lat;lon;timestamp;P1;durP1;ratioP1;P2;durP2;ratioP2
79638;SDS011;69114;49.108;8.280;2023-12-20T00:00:07;15.02;;;9.15;;
79638;SDS011;69114;49.108;8.280;2023-12-20T00:02:33;17.85;;;9.77;;
79638;SDS011;69114;49.108;8.280;2023-12-20T00:04:58;21.83;;;12.13;;
79638;SDS011;69114;49.108;8.280;2023-12-20T00:07:24;16.85;;;10.25;;
79638;SDS011;69114;49.108;8.280;2023-12-20T00:09:49;16.60;;;9.35;;
79638;SDS011;69114;49.108;8.280;2023-12-20T00:12:14;17.08;;;9.73;;
79638;SDS011;69114;49.108;8.280;2023-12-20T00:14:40;18.92;;;10.70;;
79638;SDS011;69114;49.108;8.280;2023-12-20T00:17:05;18.40;;;10.70;;
79638;SDS011;69114;49.108;8.280;2023-12-20T00:19:30;21.33;;;10.17;;
79638;SDS011;69114;49.108;8.280;2023-12-20T00:21:55;17.87;;;10.07;;
79638;SDS011;69114;49.108;8.280;2023-12-20T00:24:21;17.25;;;10.50;;
79638;SDS011;69114;49.108;8.280;2023-12-20T00:26:46;19.17;;;11.38;;
79638;SDS011;69114;49.108;8.280;2023-12-20T00:29:12;22.08;;;10.93;;
79638;SDS011;69114;49.108;8.280;2023-12-20T00:31:37;19.30;;;11.02;;
79638;SDS011;69114;49.108;8.280;2023-12-20T00:34:02;23.67;;;10.98;;
79638;SDS011;69114;49.108;8.280;2023-12-20T00:36:27;14.50;;;9.17;;
79638;SDS011;69114;49.108;8.280;2023-12-20T00:38:53;18.02;;;10.63;;
79638;SDS011;69114;49.108;8.280;2023-12-20T00:41:18;16.27;;;10.23;;
79638;SDS011;69114;49.108;8.280;2023-12-20T00:43:43;22.47;;;10.77;;
79638;SDS011;69114;49.108;8.280;2023-12-20T00:46:09;15.35;;;9.93;;
79638;SDS011;69114;49.108;8.280;2023-12-20T00:48:34;18.35;;;10.65;;
79638;SDS011;69114;49.108;8.280;2023-12-20T00:51:00;18.58;;;9.55;;
79638;SDS011;69114;49.108;8.280;2023-12-20T00:53:25;15.57;;;10.47;;
79638;SDS011;69114;49.108;8.280;2023-12-20T00:55:50;15.63;;;9.50;;
79638;SDS011;69114;49.108;8.280;2023-12-20T00:58:16;16.77;;;9.95;;
79638;SDS011;69114;49.108;8.280;2023-12-20T01:00:42;17.85;;;11.88;;
79638;SDS011;69114;49.108;8.280;2023-12-20T01:03:08;16.15;;;9.75;;
79638;SDS011;69114;49.108;8.280;2023-12-20T01:05:33;19.13;;;10.95;;
79638;SDS011;69114;49.108;8.280;2023-12-20T01:07:58;12.35;;;8.10;;
79638;SDS011;69114;49.108;8.280;2023-12-20T01:10:24;17.67;;;9.45;;
79638;SDS011;69114;49.108;8.280;2023-12-20T01:12:53;15.32;;;9.35;;
79638;SDS011;69114;49.108;8.280;2023-12-20T01:15:18;16.95;;;9.30;;
79638;SDS011;69114;49.108;8.280;2023-12-20T01:17:43;15.13;;;8.23;;
79638;SDS011;69114;49.108;8.280;2023-12-20T01:20:09;16.80;;;10.23;;
79638;SDS011;69114;49.108;8.280;2023-12-20T01:22:34;16.95;;;8.75;;
79638;SDS011;69114;49.108;8.280;2023-12-20T01:25:00;16.15;;;9.35;;
79638;SDS011;69114;49.108;8.280;2023-12-20T01:27:27;17.13;;;9.07;;
79638;SDS011;69114;49.108;8.280;2023-12-20T01:29:52;14.55;;;8.57;;
79638;SDS011;69114;49.108;8.280;2023-12-20T01:32:18;15.90;;;9.03;;
79638;SDS011;69114;49.108;8.280;2023-12-20T01:34:43;14.38;;;9.10;;
79638;SDS011;69114;49.108;8.280;2023-12-20T01:37:08;14.83;;;8.13;;
79638;SDS011;69114;49.108;8.280;2023-12-20T01:39:33;14.93;;;8.93;;
79638;SDS011;69114;49.108;8.280;2023-12-20T01:41:59;13.07;;;8.63;;
79638;SDS011;69114;49.108;8.280;2023-12-20T01:44:24;14.05;;;9.48;;
79638;SDS011;69114;49.108;8.280;2023-12-20T01:46:49;16.15;;;9.52;;
79638;SDS011;69114;49.108;8.280;2023-12-20T01:49:15;13.70;;;8.07;;
79638;SDS011;69114;49.108;8.280;2023-12-20T01:51:41;15.10;;;8.68;;
79638;SDS011;69114;49.108;8.280;2023-12-20T01:54:07;14.48;;;8.65;;
79638;SDS011;69114;49.108;8.280;2023-12-20T01:56:33;12.63;;;8.02;;
79638;SDS011;69114;49.108;8.280;2023-12-20T01:58:59;14.80;;;8.32;;
79638;SDS011;69114;49.108;8.280;2023-12-20T02:01:25;14.38;;;8.52;;
79638;SDS011;69114;49.108;8.280;2023-12-20T02:03:53;17.27;;;9.52;;
79638;SDS011;69114;49.108;8.280;2023-12-20T02:06:18;14.20;;;8.57;;
79638;SDS011;69114;49.108;8.280;2023-12-20T02:08:46;10.90;;;7.97;;
79638;SDS011;69114;49.108;8.280;2023-12-20T02:11:12;11.50;;;6.97;;
79638;SDS011;69114;49.108;8.280;2023-12-20T02:13:40;11.82;;;8.50;;
79638;SDS011;69114;49.108;8.280;2023-12-20T02:16:05;12.45;;;7.75;;
79638;SDS011;69114;49.108;8.280;2023-12-20T02:18:32;13.70;;;7.47;;
79638;SDS011;69114;49.108;8.280;2023-12-20T02:20:57;11.18;;;8.13;;
79638;SDS011;69114;49.108;8.280;2023-12-20T02:23:23;11.38;;;7.03;;
79638;SDS011;69114;49.108;8.280;2023-12-20T02:25:48;10.13;;;6.97;;
79638;SDS011;69114;49.108;8.280;2023-12-20T02:28:13;11.60;;;6.80;;
79638;SDS011;69114;49.108;8.280;2023-12-20T02:30:39;9.90;;;6.60;;
79638;SDS011;69114;49.108;8.280;2023-12-20T02:33:05;10.40;;;5.67;;
79638;SDS011;69114;49.108;8.280;2023-12-20T02:35:35;11.93;;;6.70;;
79638;SDS011;69114;49.108;8.280;2023-12-20T02:38:00;10.23;;;6.00;;
79638;SDS011;69114;49.108;8.280;2023-12-20T02:40:26;10.50;;;6.63;;
79638;SDS011;69114;49.108;8.280;2023-12-20T02:42:51;10.20;;;6.38;;
79638;SDS011;69114;49.108;8.280;2023-12-20T02:45:16;9.83;;;5.67;;
79638;SDS011;69114;49.108;8.280;2023-12-20T02:47:42;11.20;;;6.53;;
79638;SDS011;69114;49.108;8.280;2023-12-20T02:50:07;9.63;;;5.73;;
79638;SDS011;69114;49.108;8.280;2023-12-20T02:52:32;10.05;;;6.28;;
79638;SDS011;69114;49.108;8.280;2023-12-20T02:54:58;10.65;;;6.13;;
79638;SDS011;69114;49.108;8.280;2023-12-20T02:57:23;9.20;;;5.83;;
79638;SDS011;69114;49.108;8.280;2023-12-20T02:59:48;8.15;;;5.65;;
79638;SDS011;69114;49.108;8.280;2023-12-20T03:02:14;8.55;;;5.43;;
79638;SDS011;69114;49.108;8.280;2023-12-20T03:04:40;9.82;;;5.57;;
79638;SDS011;69114;49.108;8.280;2023-12-20T03:07:05;11.85;;;6.35;;
79638;SDS011;69114;49.108;8.280;2023-12-20T03:09:30;7.75;;;5.43;;
79638;SDS011;69114;49.108;8.280;2023-12-20T03:11:56;9.63;;;6.35;;
79638;SDS011;69114;49.108;8.280;2023-12-20T03:14:21;8.93;;;5.80;;
79638;SDS011;69114;49.108;8.280;2023-12-20T03:16:47;11.90;;;6.57;;
79638;SDS011;69114;49.108;8.280;2023-12-20T03:19:15;9.05;;;5.47;;
79638;SDS011;69114;49.108;8.280;2023-12-20T03:21:41;9.55;;;6.50;;
79638;SDS011;69114;49.108;8.280;2023-12-20T03:24:06;9.10;;;5.43;;
79638;SDS011;69114;49.108;8.280;2023-12-20T03:26:31;9.38;;;6.03;;
79638;SDS011;69114;49.108;8.280;2023-12-20T03:28:56;8.07;;;5.17;;
79638;SDS011;69114;49.108;8.280;2023-12-20T03:31:22;8.87;;;5.30;;
79638;SDS011;69114;49.108;8.280;2023-12-20T03:33:47;8.32;;;5.22;;
79638;SDS011;69114;49.108;8.280;2023-12-20T03:36:12;9.15;;;5.68;;
79638;SDS011;69114;49.108;8.280;2023-12-20T03:38:38;8.17;;;4.67;;
79638;SDS011;69114;49.108;8.280;2023-12-20T03:41:04;7.50;;;5.30;;
79638;SDS011;69114;49.108;8.280;2023-12-20T03:43:29;7.78;;;4.25;;
79638;SDS011;69114;49.108;8.280;2023-12-20T03:45:54;10.77;;;5.20;;
79638;SDS011;69114;49.108;8.280;2023-12-20T03:48:20;9.07;;;4.97;;
79638;SDS011;69114;49.108;8.280;2023-12-20T03:50:45;8.63;;;5.13;;
79638;SDS011;69114;49.108;8.280;2023-12-20T03:53:10;6.97;;;4.72;;
79638;SDS011;69114;49.108;8.280;2023-12-20T03:55:36;7.38;;;4.57;;
79638;SDS011;69114;49.108;8.280;2023-12-20T03:58:01;8.93;;;4.97;;
79638;SDS011;69114;49.108;8.280;2023-12-20T04:00:26;8.43;;;5.05;;
79638;SDS011;69114;49.108;8.280;2023-12-20T04:02:52;8.20;;;5.03;;
79638;SDS011;69114;49.108;8.280;2023-12-20T04:05:17;9.57;;;5.70;;
79638;SDS011;69114;49.108;8.280;2023-12-20T04:07:43;9.05;;;4.57;;
79638;SDS011;69114;49.108;8.280;2023-12-20T04:10:08;7.47;;;4.70;;
79638;SDS011;69114;49.108;8.280;2023-12-20T04:12:34;6.45;;;4.45;;
79638;SDS011;69114;49.108;8.280;2023-12-20T04:14:59;7.75;;;4.60;;
79638;SDS011;69114;49.108;8.280;2023-12-20T04:17:25;7.63;;;4.07;;
79638;SDS011;69114;49.108;8.280;2023-12-20T04:19:51;7.07;;;3.88;;
79638;SDS011;69114;49.108;8.280;2023-12-20T04:22:17;6.55;;;3.67;;
79638;SDS011;69114;49.108;8.280;2023-12-20T04:24:43;5.07;;;3.10;;
79638;SDS011;69114;49.108;8.280;2023-12-20T04:27:09;5.00;;;3.40;;
79638;SDS011;69114;49.108;8.280;2023-12-20T04:29:34;4.07;;;3.08;;
79638;SDS011;69114;49.108;8.280;2023-12-20T04:32:00;5.63;;;3.00;;
79638;SDS011;69114;49.108;8.280;2023-12-20T04:34:25;3.80;;;2.60;;
79638;SDS011;69114;49.108;8.280;2023-12-20T04:36:51;4.47;;;2.67;;
79638;SDS011;69114;49.108;8.280;2023-12-20T04:39:16;3.80;;;2.80;;
79638;SDS011;69114;49.108;8.280;2023-12-20T04:41:41;8.37;;;3.00;;
79638;SDS011;69114;49.108;8.280;2023-12-20T04:44:07;4.33;;;2.53;;
79638;SDS011;69114;49.108;8.280;2023-12-20T04:46:32;3.90;;;2.57;;
79638;SDS011;69114;49.108;8.280;2023-12-20T04:48:57;3.90;;;2.72;;
79638;SDS011;69114;49.108;8.280;2023-12-20T04:51:23;3.67;;;2.88;;
79638;SDS011;69114;49.108;8.280;2023-12-20T04:53:48;5.53;;;2.80;;
79638;SDS011;69114;49.108;8.280;2023-12-20T04:56:14;4.32;;;2.90;;
79638;SDS011;69114;49.108;8.280;2023-12-20T04:58:39;4.70;;;2.92;;
79638;SDS011;69114;49.108;8.280;2023-12-20T05:01:08;5.30;;;3.65;;
79638;SDS011;69114;49.108;8.280;2023-12-20T05:03:34;4.35;;;2.55;;
79638;SDS011;69114;49.108;8.280;2023-12-20T05:05:59;6.07;;;3.80;;
79638;SDS011;69114;49.108;8.280;2023-12-20T05:08:24;4.88;;;3.35;;
79638;SDS011;69114;49.108;8.280;2023-12-20T05:10:50;4.30;;;2.95;;
79638;SDS011;69114;49.108;8.280;2023-12-20T05:13:16;4.90;;;3.10;;
79638;SDS011;69114;49.108;8.280;2023-12-20T05:15:41;3.40;;;2.55;;
79638;SDS011;69114;49.108;8.280;2023-12-20T05:18:07;4.60;;;3.10;;
79638;SDS011;69114;49.108;8.280;2023-12-20T05:20:32;4.30;;;2.85;;
79638;SDS011;69114;49.108;8.280;2023-12-20T05:22:57;4.50;;;2.90;;
79638;SDS011;69114;49.108;8.280;2023-12-20T05:25:23;5.35;;;2.75;;
79638;SDS011;69114;49.108;8.280;2023-12-20T05:27:48;3.70;;;2.90;;
79638;SDS011;69114;49.108;8.280;2023-12-20T05:30:13;4.20;;;2.70;;
79638;SDS011;69114;49.108;8.280;2023-12-20T05:32:39;5.75;;;3.38;;
79638;SDS011;69114;49.108;8.280;2023-12-20T05:35:04;5.03;;;3.10;;
79638;SDS011;69114;49.108;8.280;2023-12-20T05:37:30;4.07;;;3.03;;
79638;SDS011;69114;49.108;8.280;2023-12-20T05:39:55;3.83;;;2.97;;
79638;SDS011;69114;49.108;8.280;2023-12-20T05:42:20;4.07;;;2.78;;
79638;SDS011;69114;49.108;8.280;2023-12-20T05:44:46;4.13;;;3.17;;
79638;SDS011;69114;49.108;8.280;2023-12-20T05:47:11;4.80;;;3.35;;
79638;SDS011;69114;49.108;8.280;2023-12-20T05:49:36;4.72;;;3.03;;
79638;SDS011;69114;49.108;8.280;2023-12-20T05:52:02;4.17;;;3.23;;
79638;SDS011;69114;49.108;8.280;2023-12-20T05:54:27;5.15;;;3.25;;
79638;SDS011;69114;49.108;8.280;2023-12-20T05:56:52;4.90;;;3.90;;
79638;SDS011;69114;49.108;8.280;2023-12-20T05:59:18;6.13;;;4.18;;
79638;SDS011;69114;49.108;8.280;2023-12-20T06:01:43;6.47;;;3.78;;
79638;SDS011;69114;49.108;8.280;2023-12-20T06:04:08;5.30;;;4.30;;
79638;SDS011;69114;49.108;8.280;2023-12-20T06:06:34;6.13;;;3.83;;
79638;SDS011;69114;49.108;8.280;2023-12-20T06:08:59;5.53;;;3.25;;
79638;SDS011;69114;49.108;8.280;2023-12-20T06:11:25;5.82;;;4.13;;
79638;SDS011;69114;49.108;8.280;2023-12-20T06:13:51;6.20;;;4.18;;
79638;SDS011;69114;49.108;8.280;2023-12-20T06:16:18;6.40;;;3.90;;
79638;SDS011;69114;49.108;8.280;2023-12-20T06:18:43;6.25;;;4.05;;
79638;SDS011;69114;49.108;8.280;2023-12-20T06:21:09;5.22;;;4.20;;
79638;SDS011;69114;49.108;8.280;2023-12-20T06:23:37;6.55;;;4.20;;
79638;SDS011;69114;49.108;8.280;2023-12-20T06:26:03;6.53;;;4.38;;
79638;SDS011;69114;49.108;8.280;2023-12-20T06:28:31;5.50;;;4.20;;
79638;SDS011;69114;49.108;8.280;2023-12-20T06:30:56;9.23;;;5.40;;
79638;SDS011;69114;49.108;8.280;2023-12-20T06:33:22;8.10;;;4.82;;
79638;SDS011;69114;49.108;8.280;2023-12-20T06:35:48;6.13;;;4.47;;
79638;SDS011;69114;49.108;8.280;2023-12-20T06:38:23;8.88;;;5.60;;
79638;SDS011;69114;49.108;8.280;2023-12-20T06:40:48;9.77;;;5.63;;
79638;SDS011;69114;49.108;8.280;2023-12-20T06:43:14;8.50;;;4.97;;
79638;SDS011;69114;49.108;8.280;2023-12-20T06:45:39;7.65;;;4.68;;
79638;SDS011;69114;49.108;8.280;2023-12-20T06:48:05;7.57;;;5.03;;
79638;SDS011;69114;49.108;8.280;2023-12-20T06:50:36;7.80;;;4.53;;
79638;SDS011;69114;49.108;8.280;2023-12-20T06:53:04;6.45;;;4.35;;
79638;SDS011;69114;49.108;8.280;2023-12-20T06:55:32;7.30;;;4.68;;
79638;SDS011;69114;49.108;8.280;2023-12-20T06:57:58;9.65;;;5.30;;
79638;SDS011;69114;49.108;8.280;2023-12-20T07:00:23;7.13;;;4.68;;
79638;SDS011;69114;49.108;8.280;2023-12-20T07:02:48;6.53;;;4.40;;
79638;SDS011;69114;49.108;8.280;2023-12-20T07:05:16;9.25;;;4.70;;
79638;SDS011;69114;49.108;8.280;2023-12-20T07:07:42;7.55;;;5.15;;
79638;SDS011;69114;49.108;8.280;2023-12-20T07:10:07;9.02;;;4.85;;
79638;SDS011;69114;49.108;8.280;2023-12-20T07:12:33;7.90;;;5.05;;
79638;SDS011;69114;49.108;8.280;2023-12-20T07:14:58;7.27;;;5.30;;
79638;SDS011;69114;49.108;8.280;2023-12-20T07:17:23;7.28;;;4.53;;
79638;SDS011;69114;49.108;8.280;2023-12-20T07:19:49;8.90;;;4.63;;
79638;SDS011;69114;49.108;8.280;2023-12-20T07:22:14;7.22;;;5.10;;
79638;SDS011;69114;49.108;8.280;2023-12-20T07:24:39;9.05;;;4.40;;
79638;SDS011;69114;49.108;8.280;2023-12-20T07:27:05;6.83;;;3.93;;
79638;SDS011;69114;49.108;8.280;2023-12-20T07:29:30;6.63;;;4.27;;
79638;SDS011;69114;49.108;8.280;2023-12-20T07:31:55;7.22;;;4.03;;
79638;SDS011;69114;49.108;8.280;2023-12-20T07:34:21;8.47;;;5.13;;
79638;SDS011;69114;49.108;8.280;2023-12-20T07:36:46;5.47;;;4.40;;
79638;SDS011;69114;49.108;8.280;2023-12-20T07:39:12;7.68;;;4.28;;
79638;SDS011;69114;49.108;8.280;2023-12-20T07:41:39;5.93;;;4.60;;
79638;SDS011;69114;49.108;8.280;2023-12-20T07:44:04;5.90;;;4.20;;
79638;SDS011;69114;49.108;8.280;2023-12-20T07:46:30;6.03;;;3.60;;
79638;SDS011;69114;49.108;8.280;2023-12-20T07:48:55;6.00;;;4.13;;
79638;SDS011;69114;49.108;8.280;2023-12-20T07:51:21;5.63;;;4.25;;
79638;SDS011;69114;49.108;8.280;2023-12-20T07:53:46;4.53;;;3.58;;
79638;SDS011;69114;49.108;8.280;2023-12-20T07:56:18;5.45;;;3.80;;
79638;SDS011;69114;49.108;8.280;2023-12-20T07:58:44;4.80;;;3.20;;
79638;SDS011;69114;49.108;8.280;2023-12-20T08:01:11;6.00;;;4.15;;
79638;SDS011;69114;49.108;8.280;2023-12-20T08:03:37;3.95;;;3.00;;
79638;SDS011;69114;49.108;8.280;2023-12-20T08:06:02;3.65;;;2.70;;
79638;SDS011;69114;49.108;8.280;2023-12-20T08:08:28;4.07;;;2.92;;
79638;SDS011;69114;49.108;8.280;2023-12-20T08:10:53;4.20;;;2.60;;
79638;SDS011;69114;49.108;8.280;2023-12-20T08:13:19;4.82;;;2.72;;
79638;SDS011;69114;49.108;8.280;2023-12-20T08:15:44;4.72;;;3.03;;
79638;SDS011;69114;49.108;8.280;2023-12-20T08:18:09;3.03;;;2.50;;
79638;SDS011;69114;49.108;8.280;2023-12-20T08:20:35;3.40;;;2.33;;
79638;SDS011;69114;49.108;8.280;2023-12-20T08:23:00;5.57;;;2.42;;
79638;SDS011;69114;49.108;8.280;2023-12-20T08:25:25;3.40;;;2.63;;
79638;SDS011;69114;49.108;8.280;2023-12-20T08:27:51;2.60;;;2.13;;
79638;SDS011;69114;49.108;8.280;2023-12-20T08:30:16;6.28;;;2.47;;
79638;SDS011;69114;49.108;8.280;2023-12-20T08:32:45;4.30;;;2.60;;
79638;SDS011;69114;49.108;8.280;2023-12-20T08:35:11;3.63;;;2.70;;
79638;SDS011;69114;49.108;8.280;2023-12-20T08:37:36;3.15;;;2.30;;
79638;SDS011;69114;49.108;8.280;2023-12-20T08:40:01;2.85;;;2.05;;
79638;SDS011;69114;49.108;8.280;2023-12-20T08:42:27;5.15;;;2.10;;
79638;SDS011;69114;49.108;8.280;2023-12-20T08:44:56;5.05;;;2.10;;
79638;SDS011;69114;49.108;8.280;2023-12-20T08:47:23;2.88;;;1.95;;
79638;SDS011;69114;49.108;8.280;2023-12-20T08:49:48;5.22;;;2.22;;
79638;SDS011;69114;49.108;8.280;2023-12-20T08:52:14;5.27;;;2.10;;
79638;SDS011;69114;49.108;8.280;2023-12-20T08:54:39;4.53;;;1.80;;
79638;SDS011;69114;49.108;8.280;2023-12-20T08:57:04;2.38;;;1.85;;
79638;SDS011;69114;49.108;8.280;2023-12-20T08:59:31;4.25;;;1.92;;
79638;SDS011;69114;49.108;8.280;2023-12-20T09:01:57;4.10;;;2.10;;
79638;SDS011;69114;49.108;8.280;2023-12-20T09:04:22;2.88;;;1.88;;
79638;SDS011;69114;49.108;8.280;2023-12-20T09:06:48;3.38;;;1.90;;
79638;SDS011;69114;49.108;8.280;2023-12-20T09:09:13;4.97;;;1.88;;
79638;SDS011;69114;49.108;8.280;2023-12-20T09:11:39;3.17;;;1.88;;
79638;SDS011;69114;49.108;8.280;2023-12-20T09:14:05;3.38;;;2.00;;
79638;SDS011;69114;49.108;8.280;2023-12-20T09:16:31;5.07;;;2.35;;
79638;SDS011;69114;49.108;8.280;2023-12-20T09:18:56;3.90;;;2.13;;
79638;SDS011;69114;49.108;8.280;2023-12-20T09:21:22;7.07;;;2.30;;
79638;SDS011;69114;49.108;8.280;2023-12-20T09:23:47;7.38;;;3.15;;
79638;SDS011;69114;49.108;8.280;2023-12-20T09:26:13;4.35;;;2.08;;
79638;SDS011;69114;49.108;8.280;2023-12-20T09:28:38;4.05;;;2.40;;
79638;SDS011;69114;49.108;8.280;2023-12-20T09:31:05;3.58;;;1.83;;
79638;SDS011;69114;49.108;8.280;2023-12-20T09:33:31;4.43;;;2.10;;
79638;SDS011;69114;49.108;8.280;2023-12-20T09:35:57;5.85;;;2.38;;
79638;SDS011;69114;49.108;8.280;2023-12-20T09:38:22;3.30;;;2.22;;
79638;SDS011;69114;49.108;8.280;2023-12-20T09:40:47;3.42;;;2.13;;
79638;SDS011;69114;49.108;8.280;2023-12-20T09:43:14;5.20;;;2.10;;
79638;SDS011;69114;49.108;8.280;2023-12-20T09:45:40;5.50;;;2.30;;
79638;SDS011;69114;49.108;8.280;2023-12-20T09:48:07;5.53;;;2.55;;
79638;SDS011;69114;49.108;8.280;2023-12-20T09:50:32;4.28;;;2.20;;
79638;SDS011;69114;49.108;8.280;2023-12-20T09:52:58;6.13;;;2.45;;
79638;SDS011;69114;49.108;8.280;2023-12-20T09:55:25;4.95;;;2.35;;
79638;SDS011;69114;49.108;8.280;2023-12-20T09:57:53;4.30;;;2.17;;
79638;SDS011;69114;49.108;8.280;2023-12-20T10:00:18;3.58;;;2.30;;
79638;SDS011;69114;49.108;8.280;2023-12-20T10:02:52;7.88;;;2.85;;
79638;SDS011;69114;49.108;8.280;2023-12-20T10:05:23;5.63;;;2.60;;
79638;SDS011;69114;49.108;8.280;2023-12-20T10:07:52;4.80;;;2.20;;
79638;SDS011;69114;49.108;8.280;2023-12-20T10:10:17;7.13;;;2.65;;
79638;SDS011;69114;49.108;8.280;2023-12-20T10:13:00;5.90;;;2.40;;
79638;SDS011;69114;49.108;8.280;2023-12-20T10:15:30;5.10;;;3.05;;
79638;SDS011;69114;49.108;8.280;2023-12-20T10:17:56;5.13;;;2.63;;
79638;SDS011;69114;49.108;8.280;2023-12-20T10:20:22;5.53;;;2.05;;
79638;SDS011;69114;49.108;8.280;2023-12-20T10:22:47;6.20;;;2.67;;
79638;SDS011;69114;49.108;8.280;2023-12-20T10:25:14;5.70;;;3.13;;
79638;SDS011;69114;49.108;8.280;2023-12-20T10:27:39;3.63;;;2.47;;
79638;SDS011;69114;49.108;8.280;2023-12-20T10:30:04;3.47;;;2.33;;
79638;SDS011;69114;49.108;8.280;2023-12-20T10:32:30;5.57;;;2.35;;
79638;SDS011;69114;49.108;8.280;2023-12-20T10:34:56;5.85;;;2.30;;
79638;SDS011;69114;49.108;8.280;2023-12-20T10:37:22;4.95;;;2.75;;
79638;SDS011;69114;49.108;8.280;2023-12-20T10:39:51;3.97;;;2.33;;
79638;SDS011;69114;49.108;8.280;2023-12-20T10:42:21;6.10;;;3.38;;
79638;SDS011;69114;49.108;8.280;2023-12-20T10:44:48;4.05;;;2.55;;
79638;SDS011;69114;49.108;8.280;2023-12-20T10:47:15;6.93;;;3.28;;
79638;SDS011;69114;49.108;8.280;2023-12-20T10:49:42;5.50;;;2.78;;
79638;SDS011;69114;49.108;8.280;2023-12-20T10:52:09;5.80;;;2.80;;
79638;SDS011;69114;49.108;8.280;2023-12-20T10:54:36;5.07;;;2.42;;
79638;SDS011;69114;49.108;8.280;2023-12-20T10:57:02;6.70;;;2.70;;
79638;SDS011;69114;49.108;8.280;2023-12-20T10:59:33;3.80;;;1.95;;
79638;SDS011;69114;49.108;8.280;2023-12-20T11:02:01;7.75;;;2.60;;
79638;SDS011;69114;49.108;8.280;2023-12-20T11:04:36;4.88;;;2.70;;
79638;SDS011;69114;49.108;8.280;2023-12-20T11:09:58;6.95;;;2.83;;
79638;SDS011;69114;49.108;8.280;2023-12-20T11:12:51;4.15;;;2.47;;
79638;SDS011;69114;49.108;8.280;2023-12-20T11:15:17;5.47;;;2.35;;
79638;SDS011;69114;49.108;8.280;2023-12-20T11:17:44;4.70;;;2.13;;
79638;SDS011;69114;49.108;8.280;2023-12-20T11:20:11;4.53;;;2.20;;
79638;SDS011;69114;49.108;8.280;2023-12-20T11:22:37;5.07;;;2.60;;
79638;SDS011;69114;49.108;8.280;2023-12-20T11:27:36;6.57;;;3.05;;
79638;SDS011;69114;49.108;8.280;2023-12-20T11:32:33;6.88;;;2.42;;
79638;SDS011;69114;49.108;8.280;2023-12-20T11:37:31;4.57;;;2.33;;
79638;SDS011;69114;49.108;8.280;2023-12-20T11:40:04;4.00;;;2.60;;
79638;SDS011;69114;49.108;8.280;2023-12-20T11:42:38;6.97;;;2.65;;
79638;SDS011;69114;49.108;8.280;2023-12-20T11:45:05;3.83;;;2.42;;
79638;SDS011;69114;49.108;8.280;2023-12-20T11:47:33;7.43;;;2.70;;
79638;SDS011;69114;49.108;8.280;2023-12-20T11:50:00;5.43;;;2.90;;
79638;SDS011;69114;49.108;8.280;2023-12-20T11:52:28;3.95;;;2.50;;
79638;SDS011;69114;49.108;8.280;2023-12-20T11:54:53;6.10;;;3.05;;
79638;SDS011;69114;49.108;8.280;2023-12-20T11:57:19;8.38;;;2.83;;
79638;SDS011;69114;49.108;8.280;2023-12-20T11:59:44;5.13;;;2.50;;
79638;SDS011;69114;49.108;8.280;2023-12-20T12:02:11;7.75;;;3.05;;
79638;SDS011;69114;49.108;8.280;2023-12-20T12:04:37;6.20;;;3.05;;
79638;SDS011;69114;49.108;8.280;2023-12-20T12:07:02;5.40;;;3.15;;
79638;SDS011;69114;49.108;8.280;2023-12-20T12:09:28;8.13;;;3.75;;
79638;SDS011;69114;49.108;8.280;2023-12-20T12:11:53;8.82;;;3.50;;
79638;SDS011;69114;49.108;8.280;2023-12-20T12:14:19;4.55;;;2.97;;
79638;SDS011;69114;49.108;8.280;2023-12-20T12:16:45;8.68;;;4.15;;
79638;SDS011;69114;49.108;8.280;2023-12-20T12:19:24;8.73;;;3.30;;
79638;SDS011;69114;49.108;8.280;2023-12-20T12:22:07;5.43;;;3.25;;
79638;SDS011;69114;49.108;8.280;2023-12-20T12:24:37;11.40;;;3.83;;
79638;SDS011;69114;49.108;8.280;2023-12-20T12:27:05;8.65;;;4.22;;
79638;SDS011;69114;49.108;8.280;2023-12-20T12:29:32;7.95;;;3.65;;
79638;SDS011;69114;49.108;8.280;2023-12-20T12:31:58;8.98;;;4.40;;
79638;SDS011;69114;49.108;8.280;2023-12-20T12:34:23;10.55;;;3.55;;
79638;SDS011;69114;49.108;8.280;2023-12-20T12:36:49;8.40;;;4.22;;
79638;SDS011;69114;49.108;8.280;2023-12-20T12:39:15;8.73;;;3.97;;
79638;SDS011;69114;49.108;8.280;2023-12-20T12:41:40;6.32;;;2.90;;
79638;SDS011;69114;49.108;8.280;2023-12-20T12:44:06;7.97;;;3.92;;
79638;SDS011;69114;49.108;8.280;2023-12-20T12:46:31;6.65;;;2.88;;
79638;SDS011;69114;49.108;8.280;2023-12-20T12:48:57;5.88;;;3.17;;
79638;SDS011;69114;49.108;8.280;2023-12-20T12:51:23;4.32;;;2.95;;
79638;SDS011;69114;49.108;8.280;2023-12-20T12:53:48;8.18;;;4.80;;
79638;SDS011;69114;49.108;8.280;2023-12-20T12:56:14;7.15;;;2.63;;
79638;SDS011;69114;49.108;8.280;2023-12-20T12:58:40;6.18;;;2.60;;
79638;SDS011;69114;49.108;8.280;2023-12-20T13:01:05;13.43;;;7.70;;
79638;SDS011;69114;49.108;8.280;2023-12-20T13:03:30;10.63;;;4.80;;
79638;SDS011;69114;49.108;8.280;2023-12-20T13:05:56;9.65;;;5.43;;
79638;SDS011;69114;49.108;8.280;2023-12-20T13:08:21;9.35;;;2.95;;
79638;SDS011;69114;49.108;8.280;2023-12-20T13:10:47;10.45;;;7.70;;
79638;SDS011;69114;49.108;8.280;2023-12-20T13:13:12;13.18;;;9.60;;
79638;SDS011;69114;49.108;8.280;2023-12-20T13:15:37;4.97;;;3.42;;
79638;SDS011;69114;49.108;8.280;2023-12-20T13:18:03;7.40;;;2.90;;
79638;SDS011;69114;49.108;8.280;2023-12-20T13:20:29;7.85;;;4.10;;
79638;SDS011;69114;49.108;8.280;2023-12-20T13:22:55;5.95;;;3.70;;
79638;SDS011;69114;49.108;8.280;2023-12-20T13:25:20;7.47;;;3.20;;
79638;SDS011;69114;49.108;8.280;2023-12-20T13:27:45;5.55;;;3.70;;
79638;SDS011;69114;49.108;8.280;2023-12-20T13:30:11;7.25;;;3.08;;
79638;SDS011;69114;49.108;8.280;2023-12-20T13:32:36;5.40;;;3.20;;
79638;SDS011;69114;49.108;8.280;2023-12-20T13:35:02;8.02;;;3.75;;
79638;SDS011;69114;49.108;8.280;2023-12-20T13:37:29;4.88;;;2.70;;
79638;SDS011;69114;49.108;8.280;2023-12-20T13:39:54;7.63;;;3.00;;
79638;SDS011;69114;49.108;8.280;2023-12-20T13:42:19;9.48;;;3.85;;
79638;SDS011;69114;49.108;8.280;2023-12-20T13:44:45;6.97;;;3.97;;
79638;SDS011;69114;49.108;8.280;2023-12-20T13:47:11;6.35;;;2.88;;
79638;SDS011;69114;49.108;8.280;2023-12-20T13:49:37;8.57;;;3.05;;
79638;SDS011;69114;49.108;8.280;2023-12-20T13:52:02;5.65;;;3.80;;
79638;SDS011;69114;49.108;8.280;2023-12-20T13:54:29;5.63;;;2.95;;
79638;SDS011;69114;49.108;8.280;2023-12-20T13:56:54;7.55;;;2.92;;
79638;SDS011;69114;49.108;8.280;2023-12-20T13:59:19;13.02;;;5.22;;
79638;SDS011;69114;49.108;8.280;2023-12-20T14:01:45;10.40;;;4.43;;
79638;SDS011;69114;49.108;8.280;2023-12-20T14:04:10;10.98;;;3.97;;
79638;SDS011;69114;49.108;8.280;2023-12-20T14:06:36;9.30;;;2.90;;
79638;SDS011;69114;49.108;8.280;2023-12-20T14:09:02;5.32;;;2.75;;
79638;SDS011;69114;49.108;8.280;2023-12-20T14:11:30;10.70;;;3.80;;
79638;SDS011;69114;49.108;8.280;2023-12-20T14:13:56;5.57;;;3.92;;
79638;SDS011;69114;49.108;8.280;2023-12-20T14:16:23;7.47;;;3.78;;
79638;SDS011;69114;49.108;8.280;2023-12-20T14:18:49;7.50;;;3.58;;
79638;SDS011;69114;49.108;8.280;2023-12-20T14:21:16;5.68;;;3.08;;
79638;SDS011;69114;49.108;8.280;2023-12-20T14:23:42;6.57;;;2.83;;
79638;SDS011;69114;49.108;8.280;2023-12-20T14:26:07;13.43;;;4.70;;
79638;SDS011;69114;49.108;8.280;2023-12-20T14:28:32;3.10;;;2.38;;
79638;SDS011;69114;49.108;8.280;2023-12-20T14:30:58;6.53;;;2.50;;
79638;SDS011;69114;49.108;8.280;2023-12-20T14:33:23;7.63;;;2.50;;
79638;SDS011;69114;49.108;8.280;2023-12-20T14:35:49;9.07;;;3.22;;
79638;SDS011;69114;49.108;8.280;2023-12-20T14:38:14;8.05;;;3.20;;
79638;SDS011;69114;49.108;8.280;2023-12-20T14:40:40;8.63;;;2.88;;
79638;SDS011;69114;49.108;8.280;2023-12-20T14:43:06;9.63;;;3.42;;
79638;SDS011;69114;49.108;8.280;2023-12-20T14:45:31;9.07;;;2.70;;